Terminal Aerodrome Forecast
Issued by NWS Wilmington, OH

Current Version | Previous Version | Graphics & Text | Print | Product List | Glossary On
Versions: 1 2 3 4 5 6 7 8 9 10 11 12 13 14 15 16 17 18 19 20 21 22 23 24
611
FTUS41 KILN 160542
TAFCVG
TAF
KCVG 160542Z 1606/1712 30011KT P6SM SCT015 OVC070
     FM161100 28007KT P6SM SCT020
     FM161900 27007KT P6SM BKN025
     FM170400 27005KT P6SM BKN035
     FM170900 26004KT P6SM OVC022=

USA.gov is the U.S. government's official web portal to all federal, state and local government web resources and services.